AirNav   Get $300 off a Bose A20 Aviation Headset
 
 1184 users online  

4MS6 University of Mississippi Medical Center Heliport
Jackson, Mississippi, USA

GOING TO JACKSON?


FAA INFORMATION EFFECTIVE 12 SEPTEMBER 2019

Location

FAA Identifier: 4MS6
Lat/Long: 32-19-42.2000N 090-10-26.2900W
32-19.703333N 090-10.438167W
32.3283889,-90.1739694
(estimated)
Elevation: 471 ft. / 144 m (estimated)
Variation: 02E (1995)
From city: 2 miles N of JACKSON, MS
Time zone: UTC -5 (UTC -6 during Standard Time)
Zip code: 39216

Heliport Operations

Heliport use: Private use. Permission required prior to landing
Activation date: 06/1999
Control tower: no
ARTCC: MEMPHIS CENTER
FSS: GREENWOOD FLIGHT SERVICE STATION
Attendance: UNATNDD
Wind indicator: lighted
Segmented circle: no
Lights: ACTIVATE PERIMETER LIGHTS -123.05

Heliport Communications

UNICOM: 123.05
WX ASOS at HKS (2.5 nm W): 120.625 (601-354-4037)
WX ASOS at JAN (5 nm E): PHONE 601-932-2822
WX AWOS-3PT at MBO (8 nm NE): 119.125 (601-605-8137)
WX AWOS-3PT at JVW (12 nm W): 118.675 ((601) 857-3887)

Nearby radio navigation aids

VOR radial/distance  VOR name  Freq  Var
MHZr212/7.4MAGNOLIA VORTAC113.2001W

 
NDB name  Hdg/Dist  Freq  Var  ID
ALLEN210/5.836501WJA .--- .-
BRENZ139/6.726000WJH .--- ....

Heliport Services

Runway Information

Helipad H1

Dimensions: 40 x 40 ft. / 12 x 12 m
Surface: ROOF/TOP
Runway edge lights: PERI
Operational restrictions: MAX GROSS WEIGHT 12,000 LBS
Latitude: 32-19.697000N
Longitude: 090-10.438167W
Elevation: 471.0 ft.
Traffic pattern: leftleft

Helipad H2

Dimensions: 40 x 40 ft. / 12 x 12 m
Surface: ROOF/TOP
Latitude: 32-19.709500N
Longitude: 090-10.438000W
Elevation: 471.0 ft.
Traffic pattern: leftleft

Heliport Ownership and Management from official FAA records

Ownership: Privately-owned
Owner: UNIVERSITY OF MS MEDICAL CENTER
2500 NORTH STATE STREET
JACKSON, MS 39216
Phone 601-984-4367
Manager: DONNA NORRIS
2500 NORTH STATE STREET
JACKSON, MS 39216
Phone 601-984-4367

Heliport Operational Statistics

Aircraft based on the field: 2
Helicopters: 2
    

Additional Remarks

FOR CD CTC JACKSON APCH AT 601-965-4625, WHEN APCH CLSD CTC MEMPHIS ARTCC AT 901-368-8453.

Instrument Procedures

There are no published instrument procedures at 4MS6.

Some nearby airports with instrument procedures:

KHKS - Hawkins Field Airport (2 nm W)
KJAN - Jackson-Medgar Wiley Evers International Airport (5 nm E)
KMBO - Bruce Campbell Field Airport (8 nm NE)
KJVW - John Bell Williams Airport (12 nm W)
M11 - Copiah County Airport (27 nm S)
 
Loc | Ops | Rwys | IFR | FBO | Links
Com | Nav | Svcs | Stats | Notes
Area around 4MS6 (University of Mississippi Medical Center Heliport)
 
Road maps at: MapQuest Bing Google
 
Aerial photo
No photo
 
Sectional chart

 
Airport distance calculator
Flying to University of Mississippi Medical Center Heliport? Find the distance to fly.

From to 4MS6

Sunrise and sunset
Times for 20-Sep-2019
 Local
(UTC-5)
 Zulu
(UTC)
Morning civil twilight06:2411:24
Sunrise06:4911:49
Sunset19:0024:00
Evening civil twilight19:2400:24

Current date and time
Zulu (UTC)  20-Sep-2019 21:29:33
Local (UTC-5)  20-Sep-2019 16:29:33
 
METAR
KHKS 
2nm W 
202053Z 14006KT 10SM CLR 31/18 A3011 RMK AO2 SLP186 T03110178 56017
KJAN 
5nm E 
202054Z 10007G16KT 10SM BKN250 32/17 A3011 RMK AO2 SLP190 T03220167 56016
KMBO 
8nm NE 
202115Z AUTO 11005KT 10SM CLR 29/17 A3012 RMK AO2 PWINO
KJVW 
12nm W 
202115Z AUTO 11009G15KT 10SM 32/19 A3009 RMK AO2
TAF
KHKS 
2nm W 
201727Z 2018/2118 13011G17KT P6SM FEW030 SCT250 FM210000 13005KT P6SM FEW250
KJAN 
5nm E 
201727Z 2018/2118 13011G17KT P6SM FEW030 SCT250 FM210000 13005KT P6SM FEW250
NOTAMs
Click for the latest NOTAMs
NOTAMs are issued by the DoD/FAA and will open in a separate window not controlled by AirNav.

 

 
 

Would you like to see your business listed on this page?

 If your business provides an interesting product or service to pilots, flight crews, aircraft, or users of the University of Mississippi Medical Center Heliport, you should consider listing it here.  To start the listing process, click on the button below
 
Add a business
 

Other Pages about University of Mississippi Medical Center Heliport

Update a link
 
Copyright © AirNav, LLC. All rights reserved. Privacy Policy  Contact